OIAM  Mahshahr  Airport

Iran

Add Bookmark
ICAO OIAM
IATA MRX
Type Airport
Status Operational
Latitude
30° 33' 22" N
30.556200
Longitude
49° 9' 6" E
49.151901
Local (GMT +3.5 ) UTC
Sep 26, 2016 10:29 am Sep 26, 2016 06:59
Sunrise-Sunset Local UTC
Begin Civil Twilight 05:39 am 02:09
Sunrise 06:03 am 02:33
Sunset 06:05 pm 14:35
End Civil Twilight 06:29 pm 14:59
VFR
VFR
MVFR
MVFR
IFR
IFR
LIFR
LIFR
Unknown
Unavailable

Current Weather

METAR Observed VFR
OIAM 260600Z 31010KT CAVOK 29/08 Q1008 Mon, Sep 26, 2016 @ 06:00 UTC
(59 Minutes ago)
Visual Flight Rules
Wind Visibility Conditions
310° at 10 knots (19 kph) 10 km or more
  • No significant weather
Temperatures Readings Precipitation
Current Temp
29°C
84°F
Dewpoint
8°C
46°F
Humidity 27%
Altimeter 29.76" Hg
Sea Level Pressure 1,008 mb
Field Elevation
4 m
13 ft
None Recorded

Additional weather within a 92.6km radius of OIAM

Map ICAO Location
OIAG 54.4km E/NE (067°)
VFR
VFR
MVFR
MVFR
IFR
IFR
LIFR
LIFR
Unknown
Unavailable
-
-

CheckWX.com is intended as a tool to help pilots better visualize weather data. It is not intended as a substitute for an official weather briefing obtained from a Flight Service Station. CheckWX.com does not meet the FAA requirements for an official pre-flight weather briefing. Therefore, it's important that pilots still call and obtain an official FSS pre-flight weather briefing.

© 2007-2016 CheckWX.com
06:59:09 UTC